sensor_id;sensor_type;location;lat;lon;timestamp;P1;durP1;ratioP1;P2;durP2;ratioP2
1507;SDS011;745;48.586;10.032;2023-11-19T00:01:47;12.90;;;10.57;;
1507;SDS011;745;48.586;10.032;2023-11-19T00:03:48;13.53;;;11.20;;
1507;SDS011;745;48.586;10.032;2023-11-19T00:05:48;11.60;;;10.20;;
1507;SDS011;745;48.586;10.032;2023-11-19T00:07:48;13.53;;;11.07;;
1507;SDS011;745;48.586;10.032;2023-11-19T00:09:49;11.73;;;9.87;;
1507;SDS011;745;48.586;10.032;2023-11-19T00:11:49;11.10;;;9.90;;
1507;SDS011;745;48.586;10.032;2023-11-19T00:13:50;12.47;;;9.70;;
1507;SDS011;745;48.586;10.032;2023-11-19T00:15:50;11.63;;;9.93;;
1507;SDS011;745;48.586;10.032;2023-11-19T00:17:50;14.43;;;10.30;;
1507;SDS011;745;48.586;10.032;2023-11-19T00:19:51;12.57;;;10.63;;
1507;SDS011;745;48.586;10.032;2023-11-19T00:21:51;14.03;;;11.40;;
1507;SDS011;745;48.586;10.032;2023-11-19T00:23:52;11.83;;;10.27;;
1507;SDS011;745;48.586;10.032;2023-11-19T00:25:52;15.50;;;12.17;;
1507;SDS011;745;48.586;10.032;2023-11-19T00:27:53;12.10;;;10.17;;
1507;SDS011;745;48.586;10.032;2023-11-19T00:29:53;13.67;;;10.60;;
1507;SDS011;745;48.586;10.032;2023-11-19T00:31:53;11.60;;;10.40;;
1507;SDS011;745;48.586;10.032;2023-11-19T00:33:54;10.97;;;9.87;;
1507;SDS011;745;48.586;10.032;2023-11-19T00:35:54;12.60;;;10.00;;
1507;SDS011;745;48.586;10.032;2023-11-19T00:37:56;9.20;;;8.30;;
1507;SDS011;745;48.586;10.032;2023-11-19T00:39:56;11.20;;;9.30;;
1507;SDS011;745;48.586;10.032;2023-11-19T00:41:56;11.33;;;9.07;;
1507;SDS011;745;48.586;10.032;2023-11-19T00:43:57;10.37;;;8.77;;
1507;SDS011;745;48.586;10.032;2023-11-19T00:45:57;11.10;;;8.63;;
1507;SDS011;745;48.586;10.032;2023-11-19T00:47:57;9.90;;;8.30;;
1507;SDS011;745;48.586;10.032;2023-11-19T00:49:59;9.27;;;7.88;;
1507;SDS011;745;48.586;10.032;2023-11-19T00:51:59;9.37;;;8.37;;
1507;SDS011;745;48.586;10.032;2023-11-19T00:54:00;9.93;;;8.07;;
1507;SDS011;745;48.586;10.032;2023-11-19T00:56:00;9.70;;;8.40;;
1507;SDS011;745;48.586;10.032;2023-11-19T00:58:01;9.73;;;7.97;;
1507;SDS011;745;48.586;10.032;2023-11-19T01:00:01;10.10;;;8.13;;
1507;SDS011;745;48.586;10.032;2023-11-19T01:02:09;8.10;;;7.30;;
1507;SDS011;745;48.586;10.032;2023-11-19T01:04:09;9.93;;;8.17;;
1507;SDS011;745;48.586;10.032;2023-11-19T01:06:09;8.30;;;7.40;;
1507;SDS011;745;48.586;10.032;2023-11-19T01:08:10;9.27;;;7.23;;
1507;SDS011;745;48.586;10.032;2023-11-19T01:10:10;9.00;;;7.90;;
1507;SDS011;745;48.586;10.032;2023-11-19T01:12:11;8.43;;;7.63;;
1507;SDS011;745;48.586;10.032;2023-11-19T01:14:12;9.50;;;7.60;;
1507;SDS011;745;48.586;10.032;2023-11-19T01:16:12;8.37;;;7.50;;
1507;SDS011;745;48.586;10.032;2023-11-19T01:18:13;8.00;;;7.03;;
1507;SDS011;745;48.586;10.032;2023-11-19T01:20:14;7.97;;;7.17;;
1507;SDS011;745;48.586;10.032;2023-11-19T01:22:14;8.30;;;7.33;;
1507;SDS011;745;48.586;10.032;2023-11-19T01:24:14;9.30;;;7.87;;
1507;SDS011;745;48.586;10.032;2023-11-19T01:26:15;7.77;;;6.60;;
1507;SDS011;745;48.586;10.032;2023-11-19T01:28:16;8.18;;;7.32;;
1507;SDS011;745;48.586;10.032;2023-11-19T01:30:17;8.70;;;7.80;;
1507;SDS011;745;48.586;10.032;2023-11-19T01:32:17;8.20;;;7.07;;
1507;SDS011;745;48.586;10.032;2023-11-19T01:34:17;7.60;;;6.80;;
1507;SDS011;745;48.586;10.032;2023-11-19T01:36:18;8.03;;;7.20;;
1507;SDS011;745;48.586;10.032;2023-11-19T01:38:18;8.63;;;7.73;;
1507;SDS011;745;48.586;10.032;2023-11-19T01:40:21;7.60;;;6.80;;
1507;SDS011;745;48.586;10.032;2023-11-19T01:42:22;8.38;;;7.30;;
1507;SDS011;745;48.586;10.032;2023-11-19T01:44:25;7.90;;;7.10;;
1507;SDS011;745;48.586;10.032;2023-11-19T01:46:25;7.60;;;6.90;;
1507;SDS011;745;48.586;10.032;2023-11-19T01:48:26;7.90;;;6.78;;
1507;SDS011;745;48.586;10.032;2023-11-19T01:50:27;7.80;;;6.73;;
1507;SDS011;745;48.586;10.032;2023-11-19T01:52:28;11.37;;;7.73;;
1507;SDS011;745;48.586;10.032;2023-11-19T01:54:29;8.32;;;7.50;;
1507;SDS011;745;48.586;10.032;2023-11-19T01:56:29;8.77;;;6.50;;
1507;SDS011;745;48.586;10.032;2023-11-19T01:58:30;7.07;;;6.37;;
1507;SDS011;745;48.586;10.032;2023-11-19T02:00:31;8.03;;;7.30;;
1507;SDS011;745;48.586;10.032;2023-11-19T02:02:33;7.75;;;6.95;;
1507;SDS011;745;48.586;10.032;2023-11-19T02:04:33;8.00;;;7.20;;
1507;SDS011;745;48.586;10.032;2023-11-19T02:06:36;7.70;;;7.00;;
1507;SDS011;745;48.586;10.032;2023-11-19T02:08:37;7.47;;;6.72;;
1507;SDS011;745;48.586;10.032;2023-11-19T02:10:38;10.13;;;7.17;;
1507;SDS011;745;48.586;10.032;2023-11-19T02:12:41;8.27;;;7.27;;
1507;SDS011;745;48.586;10.032;2023-11-19T02:14:45;7.65;;;6.93;;
1507;SDS011;745;48.586;10.032;2023-11-19T02:16:46;8.00;;;7.20;;
1507;SDS011;745;48.586;10.032;2023-11-19T02:18:46;7.80;;;7.00;;
1507;SDS011;745;48.586;10.032;2023-11-19T02:20:47;7.83;;;6.97;;
1507;SDS011;745;48.586;10.032;2023-11-19T02:22:48;7.53;;;6.75;;
1507;SDS011;745;48.586;10.032;2023-11-19T02:24:57;8.02;;;7.20;;
1507;SDS011;745;48.586;10.032;2023-11-19T02:27:02;8.35;;;6.68;;
1507;SDS011;745;48.586;10.032;2023-11-19T02:29:11;8.00;;;7.03;;
1507;SDS011;745;48.586;10.032;2023-11-19T02:31:11;6.63;;;6.03;;
1507;SDS011;745;48.586;10.032;2023-11-19T02:33:12;7.03;;;6.17;;
1507;SDS011;745;48.586;10.032;2023-11-19T02:35:12;6.60;;;5.77;;
1507;SDS011;745;48.586;10.032;2023-11-19T02:37:13;7.23;;;6.53;;
1507;SDS011;745;48.586;10.032;2023-11-19T02:39:14;7.18;;;6.47;;
1507;SDS011;745;48.586;10.032;2023-11-19T02:41:15;7.37;;;6.67;;
1507;SDS011;745;48.586;10.032;2023-11-19T02:43:15;7.70;;;6.80;;
1507;SDS011;745;48.586;10.032;2023-11-19T02:45:15;8.50;;;6.90;;
1507;SDS011;745;48.586;10.032;2023-11-19T02:47:16;9.57;;;7.10;;
1507;SDS011;745;48.586;10.032;2023-11-19T02:49:17;11.50;;;8.20;;
1507;SDS011;745;48.586;10.032;2023-11-19T02:51:17;10.60;;;7.63;;
1507;SDS011;745;48.586;10.032;2023-11-19T02:53:18;11.88;;;8.70;;
1507;SDS011;745;48.586;10.032;2023-11-19T02:55:22;9.35;;;7.80;;
1507;SDS011;745;48.586;10.032;2023-11-19T02:57:24;9.88;;;8.10;;
1507;SDS011;745;48.586;10.032;2023-11-19T02:59:25;8.55;;;7.32;;
1507;SDS011;745;48.586;10.032;2023-11-19T03:01:28;7.85;;;6.72;;
1507;SDS011;745;48.586;10.032;2023-11-19T03:03:31;7.20;;;6.50;;
1507;SDS011;745;48.586;10.032;2023-11-19T03:05:38;8.25;;;6.65;;
1507;SDS011;745;48.586;10.032;2023-11-19T03:07:41;8.75;;;6.22;;
1507;SDS011;745;48.586;10.032;2023-11-19T03:09:44;7.30;;;6.60;;
1507;SDS011;745;48.586;10.032;2023-11-19T03:11:45;7.00;;;6.10;;
1507;SDS011;745;48.586;10.032;2023-11-19T03:13:46;9.32;;;6.72;;
1507;SDS011;745;48.586;10.032;2023-11-19T03:15:46;8.50;;;7.13;;
1507;SDS011;745;48.586;10.032;2023-11-19T03:17:47;6.60;;;5.90;;
1507;SDS011;745;48.586;10.032;2023-11-19T03:19:47;7.27;;;6.47;;
1507;SDS011;745;48.586;10.032;2023-11-19T03:21:48;6.97;;;6.28;;
1507;SDS011;745;48.586;10.032;2023-11-19T03:23:48;6.47;;;5.87;;
1507;SDS011;745;48.586;10.032;2023-11-19T03:25:49;7.00;;;6.30;;
1507;SDS011;745;48.586;10.032;2023-11-19T03:27:49;7.30;;;6.57;;
1507;SDS011;745;48.586;10.032;2023-11-19T03:29:49;6.87;;;6.07;;
1507;SDS011;745;48.586;10.032;2023-11-19T03:31:50;6.13;;;5.57;;
1507;SDS011;745;48.586;10.032;2023-11-19T03:33:50;5.77;;;5.17;;
1507;SDS011;745;48.586;10.032;2023-11-19T03:35:50;6.40;;;5.80;;
1507;SDS011;745;48.586;10.032;2023-11-19T03:37:52;6.32;;;5.72;;
1507;SDS011;745;48.586;10.032;2023-11-19T03:39:56;6.27;;;5.30;;
1507;SDS011;745;48.586;10.032;2023-11-19T03:41:59;6.13;;;5.45;;
1507;SDS011;745;48.586;10.032;2023-11-19T03:44:00;5.90;;;5.30;;
1507;SDS011;745;48.586;10.032;2023-11-19T03:46:00;5.57;;;4.97;;
1507;SDS011;745;48.586;10.032;2023-11-19T03:48:00;5.30;;;4.80;;
1507;SDS011;745;48.586;10.032;2023-11-19T03:50:01;5.37;;;4.83;;
1507;SDS011;745;48.586;10.032;2023-11-19T03:52:02;5.60;;;5.00;;
1507;SDS011;745;48.586;10.032;2023-11-19T03:54:03;4.97;;;4.33;;
1507;SDS011;745;48.586;10.032;2023-11-19T03:56:03;5.87;;;5.03;;
1507;SDS011;745;48.586;10.032;2023-11-19T03:58:04;7.00;;;5.10;;
1507;SDS011;745;48.586;10.032;2023-11-19T04:00:06;5.67;;;4.77;;
1507;SDS011;745;48.586;10.032;2023-11-19T04:02:10;5.00;;;4.60;;
1507;SDS011;745;48.586;10.032;2023-11-19T04:04:10;5.27;;;4.77;;
1507;SDS011;745;48.586;10.032;2023-11-19T04:06:10;5.00;;;4.50;;
1507;SDS011;745;48.586;10.032;2023-11-19T04:08:11;5.23;;;4.73;;
1507;SDS011;745;48.586;10.032;2023-11-19T04:10:11;4.70;;;4.20;;
1507;SDS011;745;48.586;10.032;2023-11-19T04:12:11;4.90;;;4.40;;
1507;SDS011;745;48.586;10.032;2023-11-19T04:14:12;4.70;;;4.30;;
1507;SDS011;745;48.586;10.032;2023-11-19T04:16:13;5.45;;;4.93;;
1507;SDS011;745;48.586;10.032;2023-11-19T04:18:14;4.13;;;3.72;;
1507;SDS011;745;48.586;10.032;2023-11-19T04:20:15;3.90;;;3.50;;
1507;SDS011;745;48.586;10.032;2023-11-19T04:22:15;4.17;;;3.77;;
1507;SDS011;745;48.586;10.032;2023-11-19T04:24:15;4.07;;;3.67;;
1507;SDS011;745;48.586;10.032;2023-11-19T04:26:16;4.20;;;3.80;;
1507;SDS011;745;48.586;10.032;2023-11-19T04:28:16;4.03;;;3.70;;
1507;SDS011;745;48.586;10.032;2023-11-19T04:30:18;3.53;;;3.22;;
1507;SDS011;745;48.586;10.032;2023-11-19T04:32:18;4.27;;;3.87;;
1507;SDS011;745;48.586;10.032;2023-11-19T04:34:19;3.93;;;3.57;;
1507;SDS011;745;48.586;10.032;2023-11-19T04:36:20;4.30;;;3.90;;
1507;SDS011;745;48.586;10.032;2023-11-19T04:38:20;3.43;;;3.13;;
1507;SDS011;745;48.586;10.032;2023-11-19T04:40:21;3.53;;;3.23;;
1507;SDS011;745;48.586;10.032;2023-11-19T04:42:22;3.10;;;2.90;;
1507;SDS011;745;48.586;10.032;2023-11-19T04:44:23;3.20;;;2.90;;
1507;SDS011;745;48.586;10.032;2023-11-19T04:46:23;3.30;;;3.00;;
1507;SDS011;745;48.586;10.032;2023-11-19T04:48:23;3.37;;;3.10;;
1507;SDS011;745;48.586;10.032;2023-11-19T04:50:24;2.93;;;2.73;;
1507;SDS011;745;48.586;10.032;2023-11-19T04:52:27;3.85;;;3.40;;
1507;SDS011;745;48.586;10.032;2023-11-19T04:54:27;3.40;;;3.10;;
1507;SDS011;745;48.586;10.032;2023-11-19T04:56:27;3.07;;;2.87;;
1507;SDS011;745;48.586;10.032;2023-11-19T04:58:28;2.67;;;2.47;;
1507;SDS011;745;48.586;10.032;2023-11-19T05:00:29;2.75;;;2.55;;
1507;SDS011;745;48.586;10.032;2023-11-19T05:02:29;3.37;;;3.10;;
1507;SDS011;745;48.586;10.032;2023-11-19T05:04:30;3.17;;;2.80;;
1507;SDS011;745;48.586;10.032;2023-11-19T05:06:31;3.33;;;2.57;;
1507;SDS011;745;48.586;10.032;2023-11-19T05:08:31;3.47;;;3.00;;
1507;SDS011;745;48.586;10.032;2023-11-19T05:10:32;2.60;;;2.40;;
1507;SDS011;745;48.586;10.032;2023-11-19T05:12:32;2.93;;;2.73;;
1507;SDS011;745;48.586;10.032;2023-11-19T05:14:33;3.30;;;2.93;;
1507;SDS011;745;48.586;10.032;2023-11-19T05:16:33;3.50;;;3.20;;
1507;SDS011;745;48.586;10.032;2023-11-19T05:18:35;3.00;;;2.80;;
1507;SDS011;745;48.586;10.032;2023-11-19T05:20:35;3.20;;;3.00;;
1507;SDS011;745;48.586;10.032;2023-11-19T05:22:35;3.50;;;3.20;;
1507;SDS011;745;48.586;10.032;2023-11-19T05:24:37;3.85;;;3.53;;
1507;SDS011;745;48.586;10.032;2023-11-19T05:26:39;3.60;;;3.30;;
1507;SDS011;745;48.586;10.032;2023-11-19T05:28:40;4.13;;;3.80;;
1507;SDS011;745;48.586;10.032;2023-11-19T05:30:40;4.60;;;4.20;;
1507;SDS011;745;48.586;10.032;2023-11-19T05:32:40;4.50;;;3.80;;
1507;SDS011;745;48.586;10.032;2023-11-19T05:34:41;4.13;;;3.70;;
1507;SDS011;745;48.586;10.032;2023-11-19T05:36:41;3.80;;;3.50;;
1507;SDS011;745;48.586;10.032;2023-11-19T05:38:41;4.27;;;3.87;;
1507;SDS011;745;48.586;10.032;2023-11-19T05:40:42;4.47;;;4.07;;
1507;SDS011;745;48.586;10.032;2023-11-19T05:42:43;4.78;;;4.22;;
1507;SDS011;745;48.586;10.032;2023-11-19T05:44:44;4.80;;;4.30;;
1507;SDS011;745;48.586;10.032;2023-11-19T05:46:45;5.27;;;4.40;;
1507;SDS011;745;48.586;10.032;2023-11-19T05:48:45;4.20;;;3.80;;
1507;SDS011;745;48.586;10.032;2023-11-19T05:50:46;4.87;;;4.47;;
1507;SDS011;745;48.586;10.032;2023-11-19T05:52:49;4.85;;;4.45;;
1507;SDS011;745;48.586;10.032;2023-11-19T05:54:50;4.80;;;4.40;;
1507;SDS011;745;48.586;10.032;2023-11-19T05:56:52;4.10;;;3.80;;
1507;SDS011;745;48.586;10.032;2023-11-19T05:58:54;3.90;;;3.60;;
1507;SDS011;745;48.586;10.032;2023-11-19T06:00:55;3.30;;;2.90;;
1507;SDS011;745;48.586;10.032;2023-11-19T06:02:56;2.40;;;2.20;;
1507;SDS011;745;48.586;10.032;2023-11-19T06:04:56;2.70;;;2.50;;
1507;SDS011;745;48.586;10.032;2023-11-19T06:06:56;4.20;;;3.80;;
1507;SDS011;745;48.586;10.032;2023-11-19T06:08:57;4.87;;;3.73;;
1507;SDS011;745;48.586;10.032;2023-11-19T06:10:57;5.30;;;4.80;;
1507;SDS011;745;48.586;10.032;2023-11-19T06:13:00;4.87;;;4.03;;
1507;SDS011;745;48.586;10.032;2023-11-19T06:15:05;6.05;;;5.45;;
1507;SDS011;745;48.586;10.032;2023-11-19T06:17:06;6.55;;;5.38;;
1507;SDS011;745;48.586;10.032;2023-11-19T06:19:08;3.50;;;3.20;;
1507;SDS011;745;48.586;10.032;2023-11-19T06:21:08;2.93;;;2.73;;
1507;SDS011;745;48.586;10.032;2023-11-19T06:23:08;2.40;;;2.20;;
1507;SDS011;745;48.586;10.032;2023-11-19T06:25:09;2.03;;;1.93;;
1507;SDS011;745;48.586;10.032;2023-11-19T06:27:09;2.80;;;2.33;;
1507;SDS011;745;48.586;10.032;2023-11-19T06:29:09;2.73;;;2.20;;
1507;SDS011;745;48.586;10.032;2023-11-19T06:31:10;2.80;;;2.60;;
1507;SDS011;745;48.586;10.032;2023-11-19T06:33:12;2.80;;;2.60;;
1507;SDS011;745;48.586;10.032;2023-11-19T06:35:13;2.75;;;2.30;;
1507;SDS011;745;48.586;10.032;2023-11-19T06:37:14;2.10;;;1.90;;
1507;SDS011;745;48.586;10.032;2023-11-19T06:39:14;2.30;;;2.10;;
1507;SDS011;745;48.586;10.032;2023-11-19T06:41:15;3.00;;;2.70;;
1507;SDS011;745;48.586;10.032;2023-11-19T06:43:15;3.93;;;2.80;;
1507;SDS011;745;48.586;10.032;2023-11-19T06:45:15;4.07;;;3.67;;
1507;SDS011;745;48.586;10.032;2023-11-19T06:47:16;4.70;;;4.23;;
1507;SDS011;745;48.586;10.032;2023-11-19T06:49:16;5.07;;;3.80;;
1507;SDS011;745;48.586;10.032;2023-11-19T06:51:16;4.20;;;3.90;;
1507;SDS011;745;48.586;10.032;2023-11-19T06:53:17;4.40;;;4.10;;
1507;SDS011;745;48.586;10.032;2023-11-19T06:55:17;4.50;;;4.10;;
1507;SDS011;745;48.586;10.032;2023-11-19T06:57:17;4.10;;;3.70;;
1507;SDS011;745;48.586;10.032;2023-11-19T06:59:18;4.10;;;3.70;;
1507;SDS011;745;48.586;10.032;2023-11-19T07:01:19;4.30;;;3.90;;
1507;SDS011;745;48.586;10.032;2023-11-19T07:03:19;4.10;;;3.77;;
1507;SDS011;745;48.586;10.032;2023-11-19T07:05:21;5.85;;;5.30;;
1507;SDS011;745;48.586;10.032;2023-11-19T07:07:21;5.50;;;5.00;;
1507;SDS011;745;48.586;10.032;2023-11-19T07:09:22;6.70;;;4.90;;
1507;SDS011;745;48.586;10.032;2023-11-19T07:11:23;4.93;;;4.43;;
1507;SDS011;745;48.586;10.032;2023-11-19T07:13:23;5.30;;;4.80;;
1507;SDS011;745;48.586;10.032;2023-11-19T07:15:23;5.30;;;4.80;;
1507;SDS011;745;48.586;10.032;2023-11-19T07:17:24;4.37;;;3.97;;
1507;SDS011;745;48.586;10.032;2023-11-19T07:19:24;4.30;;;3.90;;
1507;SDS011;745;48.586;10.032;2023-11-19T07:21:24;4.87;;;4.30;;
1507;SDS011;745;48.586;10.032;2023-11-19T07:23:25;4.33;;;3.93;;
1507;SDS011;745;48.586;10.032;2023-11-19T07:25:26;4.73;;;3.67;;
1507;SDS011;745;48.586;10.032;2023-11-19T07:27:26;6.13;;;4.60;;
1507;SDS011;745;48.586;10.032;2023-11-19T07:29:27;6.17;;;5.33;;
1507;SDS011;745;48.586;10.032;2023-11-19T07:31:27;5.90;;;5.30;;
1507;SDS011;745;48.586;10.032;2023-11-19T07:33:28;5.10;;;4.60;;
1507;SDS011;745;48.586;10.032;2023-11-19T07:35:29;5.97;;;4.50;;
1507;SDS011;745;48.586;10.032;2023-11-19T07:37:30;5.55;;;4.85;;
1507;SDS011;745;48.586;10.032;2023-11-19T07:39:31;7.77;;;6.80;;
1507;SDS011;745;48.586;10.032;2023-11-19T07:41:32;7.80;;;6.43;;
1507;SDS011;745;48.586;10.032;2023-11-19T07:43:32;7.90;;;6.20;;
1507;SDS011;745;48.586;10.032;2023-11-19T07:45:33;10.83;;;6.80;;
1507;SDS011;745;48.586;10.032;2023-11-19T07:47:34;4.88;;;4.47;;
1507;SDS011;745;48.586;10.032;2023-11-19T07:49:34;4.63;;;4.23;;
1507;SDS011;745;48.586;10.032;2023-11-19T07:51:35;4.50;;;4.10;;
1507;SDS011;745;48.586;10.032;2023-11-19T07:53:36;4.50;;;4.10;;
1507;SDS011;745;48.586;10.032;2023-11-19T07:55:38;5.72;;;4.47;;
1507;SDS011;745;48.586;10.032;2023-11-19T07:57:38;5.37;;;4.87;;
1507;SDS011;745;48.586;10.032;2023-11-19T07:59:38;5.17;;;4.77;;
1507;SDS011;745;48.586;10.032;2023-11-19T08:01:39;6.43;;;5.83;;
1507;SDS011;745;48.586;10.032;2023-11-19T08:03:39;11.70;;;10.50;;
1507;SDS011;745;48.586;10.032;2023-11-19T08:05:40;16.77;;;12.93;;
1507;SDS011;745;48.586;10.032;2023-11-19T08:07:40;10.97;;;9.50;;
1507;SDS011;745;48.586;10.032;2023-11-19T08:09:41;16.93;;;13.07;;
1507;SDS011;745;48.586;10.032;2023-11-19T08:11:42;7.80;;;6.80;;
1507;SDS011;745;48.586;10.032;2023-11-19T08:13:42;9.83;;;7.27;;
1507;SDS011;745;48.586;10.032;2023-11-19T08:15:43;10.40;;;8.23;;
1507;SDS011;745;48.586;10.032;2023-11-19T08:17:43;12.93;;;8.90;;
1507;SDS011;745;48.586;10.032;2023-11-19T08:19:43;17.10;;;11.77;;
1507;SDS011;745;48.586;10.032;2023-11-19T08:21:44;9.13;;;7.47;;
1507;SDS011;745;48.586;10.032;2023-11-19T08:23:44;5.70;;;5.20;;
1507;SDS011;745;48.586;10.032;2023-11-19T08:25:44;5.10;;;4.20;;
1507;SDS011;745;48.586;10.032;2023-11-19T08:27:45;4.83;;;4.33;;
1507;SDS011;745;48.586;10.032;2023-11-19T08:29:45;4.37;;;3.93;;
1507;SDS011;745;48.586;10.032;2023-11-19T08:31:46;5.13;;;4.63;;
1507;SDS011;745;48.586;10.032;2023-11-19T08:33:46;4.90;;;4.40;;
1507;SDS011;745;48.586;10.032;2023-11-19T08:35:46;4.70;;;4.03;;
1507;SDS011;745;48.586;10.032;2023-11-19T08:37:47;6.07;;;4.30;;
1507;SDS011;745;48.586;10.032;2023-11-19T08:39:47;4.60;;;4.20;;
1507;SDS011;745;48.586;10.032;2023-11-19T08:41:48;4.90;;;4.50;;
1507;SDS011;745;48.586;10.032;2023-11-19T08:43:48;5.53;;;4.57;;
1507;SDS011;745;48.586;10.032;2023-11-19T08:45:50;4.20;;;3.90;;
1507;SDS011;745;48.586;10.032;2023-11-19T08:47:50;3.90;;;3.60;;
1507;SDS011;745;48.586;10.032;2023-11-19T08:49:51;3.77;;;3.47;;
1507;SDS011;745;48.586;10.032;2023-11-19T08:51:55;5.40;;;3.85;;
1507;SDS011;745;48.586;10.032;2023-11-19T08:53:55;3.83;;;3.43;;
1507;SDS011;745;48.586;10.032;2023-11-19T08:55:55;4.60;;;4.20;;
1507;SDS011;745;48.586;10.032;2023-11-19T08:57:56;6.10;;;5.03;;
1507;SDS011;745;48.586;10.032;2023-11-19T08:59:56;6.23;;;4.77;;
1507;SDS011;745;48.586;10.032;2023-11-19T09:01:56;3.50;;;3.20;;
1507;SDS011;745;48.586;10.032;2023-11-19T09:03:57;4.07;;;3.77;;
1507;SDS011;745;48.586;10.032;2023-11-19T09:05:57;5.10;;;4.70;;
1507;SDS011;745;48.586;10.032;2023-11-19T09:07:57;3.80;;;3.50;;
1507;SDS011;745;48.586;10.032;2023-11-19T09:09:58;4.43;;;4.03;;
1507;SDS011;745;48.586;10.032;2023-11-19T09:11:58;3.90;;;3.60;;
1507;SDS011;745;48.586;10.032;2023-11-19T09:13:58;3.83;;;3.50;;
1507;SDS011;745;48.586;10.032;2023-11-19T09:15:59;4.20;;;3.50;;
1507;SDS011;745;48.586;10.032;2023-11-19T09:18:03;3.92;;;3.63;;
1507;SDS011;745;48.586;10.032;2023-11-19T09:20:04;4.97;;;4.57;;
1507;SDS011;745;48.586;10.032;2023-11-19T09:22:05;4.10;;;3.80;;
1507;SDS011;745;48.586;10.032;2023-11-19T09:24:06;3.43;;;3.13;;
1507;SDS011;745;48.586;10.032;2023-11-19T09:26:10;3.15;;;2.85;;
1507;SDS011;745;48.586;10.032;2023-11-19T09:28:11;4.00;;;3.60;;
1507;SDS011;745;48.586;10.032;2023-11-19T09:30:11;3.63;;;2.80;;
1507;SDS011;745;48.586;10.032;2023-11-19T09:32:12;3.55;;;2.55;;
1507;SDS011;745;48.586;10.032;2023-11-19T09:34:13;3.00;;;2.70;;
1507;SDS011;745;48.586;10.032;2023-11-19T09:36:13;2.40;;;2.20;;
1507;SDS011;745;48.586;10.032;2023-11-19T09:38:13;3.27;;;2.00;;
1507;SDS011;745;48.586;10.032;2023-11-19T09:40:14;2.37;;;2.17;;
1507;SDS011;745;48.586;10.032;2023-11-19T09:42:14;2.50;;;2.13;;
1507;SDS011;745;48.586;10.032;2023-11-19T09:44:15;3.30;;;3.00;;
1507;SDS011;745;48.586;10.032;2023-11-19T09:46:18;3.17;;;2.88;;
1507;SDS011;745;48.586;10.032;2023-11-19T09:48:19;5.25;;;2.60;;
1507;SDS011;745;48.586;10.032;2023-11-19T09:50:20;3.20;;;2.53;;
1507;SDS011;745;48.586;10.032;2023-11-19T09:52:20;2.57;;;2.10;;
1507;SDS011;745;48.586;10.032;2023-11-19T09:54:21;2.50;;;2.10;;
1507;SDS011;745;48.586;10.032;2023-11-19T09:56:21;2.87;;;2.63;;
1507;SDS011;745;48.586;10.032;2023-11-19T09:58:23;1.83;;;1.70;;
1507;SDS011;745;48.586;10.032;2023-11-19T10:00:23;2.20;;;2.07;;
1507;SDS011;745;48.586;10.032;2023-11-19T10:02:24;1.70;;;1.60;;
1507;SDS011;745;48.586;10.032;2023-11-19T10:04:24;1.60;;;1.50;;
1507;SDS011;745;48.586;10.032;2023-11-19T10:06:25;1.50;;;1.40;;
1507;SDS011;745;48.586;10.032;2023-11-19T10:08:26;1.90;;;1.80;;
1507;SDS011;745;48.586;10.032;2023-11-19T10:10:27;2.03;;;1.83;;
1507;SDS011;745;48.586;10.032;2023-11-19T10:12:27;2.40;;;2.20;;
1507;SDS011;745;48.586;10.032;2023-11-19T10:14:28;2.97;;;2.77;;
1507;SDS011;745;48.586;10.032;2023-11-19T10:16:31;2.75;;;2.55;;
1507;SDS011;745;48.586;10.032;2023-11-19T10:18:34;3.70;;;3.40;;
1507;SDS011;745;48.586;10.032;2023-11-19T10:20:40;3.35;;;3.05;;
1507;SDS011;745;48.586;10.032;2023-11-19T10:22:41;3.08;;;2.78;;
1507;SDS011;745;48.586;10.032;2023-11-19T10:24:41;2.37;;;2.17;;
1507;SDS011;745;48.586;10.032;2023-11-19T10:26:41;2.83;;;2.63;;
1507;SDS011;745;48.586;10.032;2023-11-19T10:28:42;2.88;;;2.67;;
1507;SDS011;745;48.586;10.032;2023-11-19T10:30:45;2.25;;;2.05;;
1507;SDS011;745;48.586;10.032;2023-11-19T10:35:08;2.10;;;1.90;;
1507;SDS011;745;48.586;10.032;2023-11-19T10:37:08;2.10;;;1.90;;
1507;SDS011;745;48.586;10.032;2023-11-19T10:39:09;1.80;;;1.70;;
1507;SDS011;745;48.586;10.032;2023-11-19T10:41:10;2.10;;;1.90;;
1507;SDS011;745;48.586;10.032;2023-11-19T10:43:10;1.90;;;1.80;;
1507;SDS011;745;48.586;10.032;2023-11-19T10:45:21;2.00;;;1.90;;
1507;SDS011;745;48.586;10.032;2023-11-19T10:47:22;1.70;;;1.60;;
1507;SDS011;745;48.586;10.032;2023-11-19T10:49:23;2.45;;;2.25;;
1507;SDS011;745;48.586;10.032;2023-11-19T10:51:24;2.30;;;2.10;;
1507;SDS011;745;48.586;10.032;2023-11-19T10:53:24;2.20;;;2.00;;
1507;SDS011;745;48.586;10.032;2023-11-19T10:55:30;1.83;;;1.73;;
1507;SDS011;745;48.586;10.032;2023-11-19T10:57:31;1.75;;;1.65;;
1507;SDS011;745;48.586;10.032;2023-11-19T10:59:33;1.98;;;1.88;;
1507;SDS011;745;48.586;10.032;2023-11-19T11:01:54;1.90;;;1.80;;
1507;SDS011;745;48.586;10.032;2023-11-19T11:03:55;1.83;;;1.63;;
1507;SDS011;745;48.586;10.032;2023-11-19T11:05:56;1.88;;;1.73;;
1507;SDS011;745;48.586;10.032;2023-11-19T11:07:58;2.72;;;1.90;;
1507;SDS011;745;48.586;10.032;2023-11-19T11:09:59;4.22;;;2.08;;
1507;SDS011;745;48.586;10.032;2023-11-19T11:12:00;1.63;;;1.52;;
1507;SDS011;745;48.586;10.032;2023-11-19T11:14:01;2.00;;;1.80;;
1507;SDS011;745;48.586;10.032;2023-11-19T11:16:02;2.07;;;1.87;;
1507;SDS011;745;48.586;10.032;2023-11-19T11:18:04;1.55;;;1.45;;
1507;SDS011;745;48.586;10.032;2023-11-19T11:20:07;1.85;;;1.75;;
1507;SDS011;745;48.586;10.032;2023-11-19T11:22:08;2.00;;;1.80;;
1507;SDS011;745;48.586;10.032;2023-11-19T11:29:24;4.38;;;3.40;;
1507;SDS011;745;48.586;10.032;2023-11-19T11:33:40;15.75;;;6.95;;
1507;SDS011;745;48.586;10.032;2023-11-19T11:38:16;4.50;;;2.80;;
1507;SDS011;745;48.586;10.032;2023-11-19T11:40:21;3.50;;;3.20;;
1507;SDS011;745;48.586;10.032;2023-11-19T11:44:57;3.70;;;3.30;;
1507;SDS011;745;48.586;10.032;2023-11-19T11:47:10;1.95;;;1.55;;
1507;SDS011;745;48.586;10.032;2023-11-19T11:49:13;4.45;;;3.10;;
1507;SDS011;745;48.586;10.032;2023-11-19T11:51:14;3.70;;;2.87;;
1507;SDS011;745;48.586;10.032;2023-11-19T11:53:17;3.63;;;2.67;;
1507;SDS011;745;48.586;10.032;2023-11-19T11:55:23;2.50;;;2.03;;
1507;SDS011;745;48.586;10.032;2023-11-19T11:57:37;2.92;;;2.00;;
1507;SDS011;745;48.586;10.032;2023-11-19T12:01:59;2.42;;;2.00;;
1507;SDS011;745;48.586;10.032;2023-11-19T12:04:00;2.50;;;1.40;;
1507;SDS011;745;48.586;10.032;2023-11-19T12:06:02;1.40;;;1.30;;
1507;SDS011;745;48.586;10.032;2023-11-19T12:08:03;3.10;;;1.13;;
1507;SDS011;745;48.586;10.032;2023-11-19T12:10:07;1.20;;;1.10;;
1507;SDS011;745;48.586;10.032;2023-11-19T12:14:15;1.30;;;1.20;;
1507;SDS011;745;48.586;10.032;2023-11-19T12:16:15;1.67;;;1.50;;
1507;SDS011;745;48.586;10.032;2023-11-19T12:18:16;1.40;;;1.20;;
1507;SDS011;745;48.586;10.032;2023-11-19T12:20:19;1.30;;;1.20;;
1507;SDS011;745;48.586;10.032;2023-11-19T12:22:21;1.88;;;1.20;;
1507;SDS011;745;48.586;10.032;2023-11-19T12:24:24;1.20;;;1.10;;
1507;SDS011;745;48.586;10.032;2023-11-19T12:26:35;1.60;;;1.50;;
1507;SDS011;745;48.586;10.032;2023-11-19T12:28:36;1.52;;;1.30;;
1507;SDS011;745;48.586;10.032;2023-11-19T12:30:37;1.40;;;1.30;;
1507;SDS011;745;48.586;10.032;2023-11-19T12:32:44;2.83;;;1.70;;
1507;SDS011;745;48.586;10.032;2023-11-19T12:34:46;1.95;;;1.30;;
1507;SDS011;745;48.586;10.032;2023-11-19T12:36:46;1.70;;;1.13;;
1507;SDS011;745;48.586;10.032;2023-11-19T12:38:46;1.97;;;1.20;;
1507;SDS011;745;48.586;10.032;2023-11-19T12:40:47;1.50;;;1.30;;
1507;SDS011;745;48.586;10.032;2023-11-19T12:42:48;1.67;;;1.40;;
1507;SDS011;745;48.586;10.032;2023-11-19T12:44:54;1.60;;;1.40;;
1507;SDS011;745;48.586;10.032;2023-11-19T12:47:01;1.20;;;1.10;;
1507;SDS011;745;48.586;10.032;2023-11-19T12:49:06;1.77;;;1.23;;
1507;SDS011;745;48.586;10.032;2023-11-19T12:51:07;2.23;;;1.27;;